ダラス/フォートワース の空港の天気 - METARとTAF

ダラス・フォートワース国際空港 ( KDFW / DFW ) - アメリカ テキサス州ダラス & フォートワース
飛行場実況気象(Metar)
観測時間02/05 13:53 CST (02/05 19:53 UTC)
風向・風速南南東 2m/s
視程10km以上
天気現象
少しの雲 雲底高度 7620m
気温18.9℃
湿度48%
気圧1019hPa
METARKDFW 051953Z 15004KT 10SM FEW250 19/08 A3010 RMK AO2 SLP190 T01890078 $
過去の天気等 Google飛行場航空写真 Wunderground天気予報

過去48時間のMETAR

飛行場予報(TAF)
発表時間: 2/05 11:35 CST (2/05 17:35 UTC)
予報対象時間: 5日12時 CST ~ 6日18時 CST
風向・風速南 5m/s
視程10km以上
少しの雲 雲底高度 7620m
6日6時 CST から
風向・風速南 6m/s
視程10km以上
全天の8割程度の雲 雲底高度 270m
6日6時 CST ~ 6日10時 CST に一時的に
視程3220m
天気現象もや
全天の8割程度の雲 雲底高度 150m
6日10時 CST から
風向・風速南 8m/s 瞬間風速 13m/s
視程10km以上
全天の8割程度の雲 雲底高度 430m
6日14時 CST から
風向・風速南 9m/s
視程10km以上
全天の4割程度の雲 雲底高度 610m
KDFW 051735Z 0518/0624 19009KT P6SM FEW250
FM061200 17011KT P6SM BKN009
TEMPO 0612/0616 2SM BR BKN005
FM061600 18015G25KT P6SM BKN014
FM062000 18017KT P6SM SCT020